Archiv-/Tagesdaten

--Timestamp---	Temp	Chill	HIndex	Humid	Dewpt	 Wind 	HiWind	WindDir	Rain 	Barom	Solar	 ET  	 UV 
--------------	----	-----	------	-----	-----	------	------	-------	-----	-----	-----	-----	----
20100923 00:00	10.7	10.7	10.7	88	8.8	0	0	-100000	0.0	1018.0	0	0.000	0.0
20100923 00:05	10.6	10.6	10.6	88	8.7	0	0	-100000	0.0	1017.9	0	0.000	0.0
20100923 00:10	10.6	10.6	10.6	88	8.7	0	0	-100000	0.0	1018.0	0	0.000	0.0
20100923 00:15	10.5	10.5	10.5	88	8.6	0	0	-100000	0.0	1017.9	0	0.000	0.0
20100923 00:20	10.5	10.5	10.5	88	8.6	0	0	-100000	0.0	1017.9	0	0.000	0.0
20100923 00:25	10.5	10.5	10.5	89	8.8	0	0	-100000	0.0	1018.0	0	0.000	0.0
20100923 00:30	10.4	10.4	10.4	89	8.7	0	0	-100000	0.0	1017.9	0	0.000	0.0
20100923 00:35	10.4	10.4	10.4	89	8.7	0	0	-100000	0.0	1017.9	0	0.000	0.0
20100923 00:40	10.3	10.3	10.3	89	8.5	0	0	-100000	0.0	1017.8	0	0.000	0.0
20100923 00:45	10.2	10.2	10.2	89	8.5	0	0	-100000	0.0	1017.9	0	0.000	0.0
20100923 00:50	10.1	10.1	10.1	89	8.4	0	0	-100000	0.0	1017.9	0	0.000	0.0
20100923 00:55	10.1	10.1	10.1	89	8.3	0	0	-100000	0.0	1017.9	0	0.000	0.0
20100923 01:00	9.9	9.9	9.9	89	8.2	0	0	-100000	0.0	1017.8	0	0.000	0.0
20100923 01:05	9.8	9.8	9.8	89	8.1	0	0	-100000	0.0	1017.7	0	0.000	0.0
20100923 01:10	9.8	9.8	9.8	89	8.1	0	0	-100000	0.0	1017.7	0	0.000	0.0
20100923 01:15	9.8	9.8	9.8	89	8.1	0	0	-100000	0.0	1017.7	0	0.000	0.0
20100923 01:20	9.7	9.7	9.7	89	8.0	0	0	-100000	0.0	1017.7	0	0.000	0.0
20100923 01:25	9.7	9.7	9.7	89	7.9	0	0	-100000	0.0	1017.7	0	0.000	0.0
20100923 01:30	9.6	9.6	9.6	89	7.8	0	0	-100000	0.0	1017.7	0	0.000	0.0
20100923 01:35	9.6	9.6	9.6	89	7.8	0	0	-100000	0.0	1017.6	0	0.000	0.0
20100923 01:40	9.5	9.5	9.5	89	7.8	0	0	-100000	0.0	1017.6	0	0.000	0.0
20100923 01:45	9.5	9.5	9.5	90	7.9	0	0	-100000	0.0	1017.6	0	0.000	0.0
20100923 01:50	9.4	9.4	9.4	90	7.9	0	0	-100000	0.0	1017.6	0	0.000	0.0
20100923 01:55	9.4	9.4	9.4	90	7.8	0	0	-100000	0.0	1017.6	0	0.000	0.0
20100923 02:00	9.3	9.3	9.3	90	7.7	0	0	-100000	0.0	1017.7	0	0.000	0.0
20100923 02:05	9.2	9.2	9.2	90	7.7	0	0	-100000	0.0	1017.5	0	0.000	0.0
20100923 02:10	9.2	9.2	9.2	90	7.7	0	2	90	0.0	1017.5	0	0.000	0.0
20100923 02:15	9.3	9.3	9.3	90	7.7	0	0	-100000	0.0	1017.5	0	0.000	0.0
20100923 02:20	9.2	9.2	9.2	90	7.7	0	0	-100000	0.0	1017.5	0	0.000	0.0
20100923 02:25	9.2	9.2	9.2	90	7.7	0	0	-100000	0.0	1017.5	0	0.000	0.0
20100923 02:30	9.2	9.2	9.2	90	7.6	0	0	-100000	0.0	1017.5	0	0.000	0.0
20100923 02:35	9.1	9.1	9.1	90	7.5	0	0	-100000	0.0	1017.6	0	0.000	0.0
20100923 02:40	9.0	9.0	9.0	90	7.4	0	0	-100000	0.0	1017.6	0	0.000	0.0
20100923 02:45	8.9	8.9	8.9	90	7.4	0	0	-100000	0.0	1017.5	0	0.000	0.0
20100923 02:50	8.9	8.9	8.9	90	7.3	0	0	-100000	0.0	1017.4	0	0.000	0.0
20100923 02:55	8.8	8.8	8.8	90	7.3	0	0	-100000	0.0	1017.4	0	0.000	0.0
20100923 03:00	8.8	8.8	8.8	90	7.3	0	0	-100000	0.0	1017.4	0	0.000	0.0
20100923 03:05	8.8	8.8	8.8	91	7.4	0	0	-100000	0.0	1017.3	0	0.000	0.0
20100923 03:10	8.9	8.9	8.9	91	7.5	0	2	90	0.0	1017.3	0	0.000	0.0
20100923 03:15	8.9	8.9	8.9	91	7.6	0	2	90	0.0	1017.3	0	0.000	0.0
20100923 03:20	9.0	9.0	9.0	91	7.6	0	0	-100000	0.0	1017.4	0	0.000	0.0
20100923 03:25	8.9	8.9	8.9	91	7.6	0	5	90	0.0	1017.4	0	0.000	0.0
20100923 03:30	8.9	8.9	8.9	91	7.5	0	5	112	0.0	1017.4	0	0.000	0.0
20100923 03:35	8.8	8.8	8.8	91	7.4	0	3	112	0.0	1017.4	0	0.000	0.0
20100923 03:40	8.8	8.8	8.8	91	7.4	0	2	112	0.0	1017.4	0	0.000	0.0
20100923 03:45	8.7	8.7	8.7	91	7.3	3	6	112	0.0	1017.4	0	0.000	0.0
20100923 03:50	8.7	8.7	8.7	91	7.3	0	2	135	0.0	1017.4	0	0.000	0.0
20100923 03:55	8.6	8.6	8.6	91	7.2	0	0	-100000	0.0	1017.3	0	0.000	0.0
20100923 04:00	8.5	8.5	8.5	91	7.1	0	0	-100000	0.0	1017.4	0	0.000	0.0
20100923 04:05	8.3	8.3	8.3	91	7.0	0	0	-100000	0.0	1017.5	0	0.000	0.0
20100923 04:10	8.3	8.3	8.3	91	6.9	0	0	-100000	0.0	1017.4	0	0.000	0.0
20100923 04:15	8.2	8.2	8.2	91	6.8	0	0	-100000	0.0	1017.4	0	0.000	0.0
20100923 04:20	8.2	8.2	8.2	91	6.8	0	0	-100000	0.0	1017.4	0	0.000	0.0
20100923 04:25	8.1	8.1	8.1	91	6.7	0	0	-100000	0.0	1017.3	0	0.000	0.0
20100923 04:30	8.1	8.1	8.1	91	6.7	0	2	135	0.0	1017.3	0	0.000	0.0
20100923 04:35	8.1	8.1	8.1	91	6.7	0	3	135	0.0	1017.3	0	0.000	0.0
20100923 04:40	8.2	8.2	8.2	91	6.8	2	3	135	0.0	1017.4	0	0.000	0.0
20100923 04:45	8.3	8.3	8.3	91	6.9	2	5	135	0.0	1017.3	0	0.000	0.0
20100923 04:50	8.4	8.4	8.4	91	7.0	2	6	135	0.0	1017.3	0	0.000	0.0
20100923 04:55	8.4	8.4	8.4	91	7.0	0	5	135	0.0	1017.2	0	0.000	0.0
20100923 05:00	8.4	8.4	8.4	91	7.0	0	3	135	0.0	1017.2	0	0.000	0.0
20100923 05:05	8.3	8.3	8.3	91	7.0	2	3	135	0.0	1017.3	0	0.000	0.0
20100923 05:10	8.3	8.3	8.3	92	7.1	2	5	135	0.0	1017.3	0	0.000	0.0
20100923 05:15	8.3	8.3	8.3	92	7.1	2	5	135	0.0	1017.3	0	0.000	0.0
20100923 05:20	8.3	8.3	8.3	92	7.1	3	6	158	0.0	1017.2	0	0.000	0.0
20100923 05:25	8.3	8.3	8.3	92	7.1	2	5	158	0.0	1017.2	0	0.000	0.0
20100923 05:30	8.3	8.3	8.3	92	7.1	3	5	158	0.0	1017.1	0	0.000	0.0
20100923 05:35	8.4	8.4	8.4	92	7.2	2	5	158	0.0	1017.1	0	0.000	0.0
20100923 05:40	8.4	8.4	8.4	92	7.2	3	6	158	0.0	1017.1	0	0.000	0.0
20100923 05:45	8.5	8.5	8.5	92	7.3	5	8	180	0.0	1017.1	0	0.000	0.0
20100923 05:50	8.5	8.5	8.5	92	7.3	5	10	180	0.0	1017.1	0	0.000	0.0
20100923 05:55	8.4	8.4	8.4	92	7.2	5	8	202	0.0	1017.1	0	0.000	0.0
20100923 06:00	8.4	8.4	8.4	92	7.2	5	8	202	0.0	1017.1	0	0.000	0.0
20100923 06:05	8.3	8.3	8.3	92	7.1	5	8	202	0.0	1017.3	0	0.000	0.0
20100923 06:10	8.2	8.2	8.2	92	6.9	5	6	202	0.0	1017.2	0	0.000	0.0
20100923 06:15	8.1	8.1	8.1	92	6.8	5	6	202	0.0	1017.3	0	0.000	0.0
20100923 06:20	8.1	8.1	8.1	92	6.8	3	6	202	0.0	1017.4	0	0.000	0.0
20100923 06:25	8.1	8.1	8.1	92	6.8	3	6	202	0.0	1017.2	0	0.000	0.0
20100923 06:30	8.2	8.2	8.2	92	6.9	2	5	202	0.0	1017.2	0	0.000	0.0
20100923 06:35	8.2	8.2	8.2	92	7.0	0	3	202	0.0	1017.1	0	0.000	0.0
20100923 06:40	8.2	8.2	8.2	92	7.0	0	2	202	0.0	1017.1	0	0.000	0.0
20100923 06:45	8.3	8.3	8.3	92	7.1	0	3	202	0.0	1017.0	0	0.000	0.0
20100923 06:50	8.4	8.4	8.4	92	7.2	2	5	202	0.0	1017.0	0	0.000	0.0
20100923 06:55	8.5	8.5	8.5	93	7.4	2	5	202	0.0	1017.1	0	0.000	0.0
20100923 07:00	8.6	8.6	8.6	93	7.5	3	6	202	0.0	1017.0	0	0.000	0.0
20100923 07:05	8.7	8.7	8.7	92	7.5	5	8	202	0.0	1017.3	0	0.000	0.0
20100923 07:10	8.7	8.7	8.7	92	7.5	5	8	202	0.0	1017.2	5	0.000	0.0
20100923 07:15	8.8	8.8	8.8	92	7.5	3	8	202	0.0	1017.3	9	0.000	0.0
20100923 07:20	8.8	8.8	8.8	92	7.5	5	8	202	0.0	1017.3	13	0.000	0.0
20100923 07:25	8.8	8.8	8.8	93	7.8	3	8	202	0.0	1017.3	17	0.000	0.0
20100923 07:30	8.8	8.8	8.8	93	7.8	5	8	202	0.0	1017.3	21	0.000	0.0
20100923 07:35	8.9	8.9	8.9	93	7.8	5	8	202	0.0	1017.3	25	0.000	0.0
20100923 07:40	8.9	8.9	8.9	93	7.9	2	6	202	0.0	1017.3	28	0.000	0.0
20100923 07:45	9.0	9.0	9.0	93	7.9	2	8	202	0.0	1017.3	31	0.000	0.0
20100923 07:50	9.1	9.1	9.1	93	8.0	5	6	202	0.0	1017.3	37	0.000	0.0
20100923 07:55	9.1	9.1	9.1	92	7.8	5	8	202	0.0	1017.3	41	0.000	0.0
20100923 08:00	9.2	9.2	9.2	93	8.1	3	6	202	0.0	1017.1	43	0.025	0.0
20100923 08:05	9.3	9.3	9.3	93	8.3	3	6	202	0.0	1017.3	45	0.000	0.0
20100923 08:10	9.5	9.5	9.5	93	8.4	3	6	202	0.0	1017.3	47	0.000	0.0
20100923 08:15	9.6	9.6	9.6	93	8.5	2	5	202	0.0	1017.3	52	0.000	0.0
20100923 08:20	9.7	9.7	9.7	93	8.6	3	6	202	0.2	1017.3	52	0.000	0.0
20100923 08:25	9.8	9.8	9.8	93	8.8	2	5	202	0.0	1017.4	54	0.000	0.0
20100923 08:30	9.9	9.9	9.9	93	8.9	2	5	202	0.0	1017.3	58	0.000	0.0
20100923 08:35	10.1	10.1	10.1	93	9.0	2	5	202	0.0	1017.3	65	0.000	0.0
20100923 08:40	10.2	10.2	10.2	93	9.1	2	6	202	0.0	1017.2	70	0.000	0.1
20100923 08:45	10.4	10.4	10.4	93	9.3	0	2	202	0.0	1017.0	70	0.000	0.5
20100923 08:50	10.6	10.6	10.6	93	9.5	0	3	202	0.0	1017.0	69	0.000	0.5
20100923 08:55	10.8	10.8	10.8	93	9.7	0	2	202	0.0	1017.0	71	0.000	0.6
20100923 09:00	11.0	11.0	11.0	93	9.9	0	2	202	0.0	1017.0	74	0.025	0.6
20100923 09:05	11.3	11.3	11.3	93	10.2	2	6	202	0.0	1017.1	76	0.000	0.7
20100923 09:10	11.6	11.6	11.6	92	10.3	2	6	202	0.0	1017.1	76	0.000	0.7
20100923 09:15	11.8	11.8	11.8	92	10.5	2	6	202	0.0	1017.1	77	0.000	0.8
20100923 09:20	12.0	12.0	12.0	92	10.7	0	5	202	0.0	1017.0	78	0.000	0.8
20100923 09:25	12.3	12.3	12.3	92	11.0	2	6	202	0.0	1016.9	78	0.000	0.9
20100923 09:30	12.5	12.5	12.5	92	11.2	2	5	202	0.0	1016.9	82	0.000	0.9
20100923 09:35	12.8	12.8	12.8	92	11.5	0	3	202	0.0	1016.8	83	0.000	1.0
20100923 09:40	13.1	13.1	13.1	91	11.7	3	6	202	0.0	1016.7	83	0.000	1.0
20100923 09:45	13.4	13.4	13.4	90	11.8	3	8	202	0.0	1016.7	85	0.000	1.1
20100923 09:50	13.7	13.7	13.7	89	11.9	3	6	202	0.0	1016.7	88	0.000	1.2
20100923 09:55	14.0	14.0	14.0	88	12.0	3	8	202	0.0	1016.7	90	0.000	1.2
20100923 10:00	14.3	14.3	14.3	87	12.1	5	10	225	0.0	1016.5	91	0.051	1.3
20100923 10:05	14.6	14.6	14.6	86	12.3	5	10	292	0.0	1016.7	92	0.000	1.3
20100923 10:10	14.9	14.9	14.9	85	12.4	5	10	270	0.0	1016.6	94	0.000	1.4
20100923 10:15	15.0	15.0	15.0	84	12.3	5	10	270	0.0	1016.6	93	0.000	1.5
20100923 10:20	15.2	15.2	15.2	84	12.5	3	10	270	0.0	1016.6	90	0.000	1.5
20100923 10:25	15.4	15.4	15.4	84	12.7	5	11	248	0.0	1016.6	92	0.000	1.6
20100923 10:30	15.6	15.6	15.6	83	12.7	5	11	292	0.0	1016.6	98	0.000	1.7
20100923 10:35	15.7	15.7	15.7	82	12.7	3	10	292	0.0	1016.5	98	0.000	1.7
20100923 10:40	15.9	15.9	15.9	82	12.8	5	11	292	0.0	1016.4	103	0.000	1.8
20100923 10:45	16.1	16.1	16.1	82	13.0	3	6	292	0.0	1016.4	103	0.000	1.9
20100923 10:50	16.3	16.3	16.3	82	13.2	5	14	292	0.0	1016.3	101	0.000	1.9
20100923 10:55	16.4	16.4	16.4	81	13.2	3	10	292	0.0	1016.2	101	0.000	2.0
20100923 11:00	16.6	16.6	16.6	80	13.1	2	10	292	0.0	1016.2	102	0.051	2.1
20100923 11:05	16.7	16.7	16.7	80	13.2	2	5	315	0.0	1016.2	103	0.000	2.1
20100923 11:10	16.8	16.8	16.8	80	13.3	2	6	315	0.0	1016.2	104	0.000	2.2
20100923 11:15	17.0	17.0	17.0	79	13.3	2	6	315	0.0	1016.0	111	0.000	2.2
20100923 11:20	17.2	17.2	17.2	79	13.5	2	8	315	0.0	1016.0	516	0.000	2.4
20100923 11:25	17.3	17.3	17.3	77	13.3	3	6	315	0.0	1016.0	519	0.000	3.1
20100923 11:30	17.4	17.4	17.4	77	13.4	2	6	315	0.0	1015.9	553	0.000	3.3
20100923 11:35	17.7	17.7	17.7	77	13.6	5	8	315	0.0	1015.9	547	0.000	3.4
20100923 11:40	17.9	17.9	17.9	75	13.4	2	6	315	0.0	1015.8	542	0.000	3.4
20100923 11:45	18.1	18.1	18.1	76	13.8	2	6	315	0.0	1015.6	551	0.000	3.6
20100923 11:50	18.3	18.3	18.3	75	13.8	2	6	315	0.0	1015.5	562	0.000	3.7
20100923 11:55	18.7	18.7	18.7	74	13.9	2	6	315	0.0	1015.5	581	0.000	3.8
20100923 12:00	18.9	18.9	18.9	73	13.9	5	10	315	0.0	1015.4	582	0.254	3.8
20100923 12:05	19.2	19.2	19.2	72	14.0	2	5	292	0.0	1015.4	586	0.000	3.9
20100923 12:10	19.4	19.4	19.4	70	13.8	2	6	292	0.0	1015.3	603	0.000	4.0
20100923 12:15	19.3	19.3	19.3	71	13.9	3	8	0	0.0	1015.2	573	0.000	3.9
20100923 12:20	19.4	19.4	19.4	72	14.3	0	5	0	0.0	1015.2	600	0.000	4.0
20100923 12:25	19.6	19.6	19.6	70	13.9	2	6	0	0.0	1015.1	572	0.000	4.0
20100923 12:30	19.5	19.5	19.5	69	13.7	2	6	0	0.0	1015.0	558	0.000	4.0
20100923 12:35	19.6	19.6	19.6	71	14.1	2	6	22	0.0	1014.9	549	0.000	4.0
20100923 12:40	19.6	19.6	19.6	70	13.9	3	8	22	0.0	1014.9	535	0.000	3.9
20100923 12:45	19.6	19.6	19.6	69	13.8	2	6	22	0.0	1014.8	549	0.000	4.0
20100923 12:50	19.6	19.6	19.6	70	13.9	5	8	45	0.0	1014.7	530	0.000	4.0
20100923 12:55	19.8	19.8	19.8	70	14.2	2	8	315	0.0	1014.6	544	0.000	4.1
20100923 13:00	20.3	20.3	20.3	69	14.4	5	10	292	0.0	1014.5	598	0.330	4.2
20100923 13:05	20.7	20.7	20.7	69	14.8	3	8	315	0.0	1014.5	613	0.000	4.3
20100923 13:10	20.9	20.9	20.9	65	14.1	5	10	315	0.0	1014.4	639	0.000	4.5
20100923 13:15	20.9	20.9	20.9	66	14.3	2	6	315	0.0	1014.3	630	0.000	4.5
20100923 13:20	21.1	21.1	21.1	66	14.5	2	8	315	0.0	1014.2	631	0.000	4.5
20100923 13:25	21.1	21.1	21.1	64	14.0	3	8	0	0.0	1014.2	628	0.000	4.4
20100923 13:30	21.1	21.1	21.1	67	14.7	3	8	22	0.0	1014.2	619	0.000	4.4
20100923 13:35	21.2	21.2	21.2	64	14.1	5	8	292	0.0	1014.2	643	0.000	4.5
20100923 13:40	21.3	21.3	21.3	65	14.5	2	6	292	0.0	1014.1	648	0.000	4.5
20100923 13:45	21.7	21.7	21.7	64	14.6	5	10	292	0.0	1013.9	643	0.000	4.4
20100923 13:50	21.8	21.8	21.8	63	14.5	2	6	292	0.0	1013.7	625	0.000	4.4
20100923 13:55	22.0	22.0	22.0	62	14.4	3	8	292	0.0	1013.7	607	0.000	4.3
20100923 14:00	22.1	22.1	22.1	61	14.2	5	8	292	0.0	1013.6	581	0.381	4.1
20100923 14:05	22.2	22.2	22.2	61	14.3	3	8	292	0.0	1013.5	617	0.000	4.1
20100923 14:10	22.3	22.3	22.3	60	14.1	5	11	315	0.0	1013.4	620	0.000	4.1
20100923 14:15	22.2	22.2	22.2	60	14.1	2	6	0	0.0	1013.3	571	0.000	3.9
20100923 14:20	22.3	22.3	22.3	60	14.1	2	8	338	0.0	1013.2	381	0.000	3.3
20100923 14:25	22.3	22.3	22.3	61	14.4	0	3	338	0.0	1013.2	607	0.000	3.9
20100923 14:30	22.6	22.6	22.6	60	14.4	2	6	338	0.0	1013.1	601	0.000	3.9
20100923 14:35	22.5	22.5	22.5	59	14.1	5	11	22	0.0	1013.0	608	0.000	3.9
20100923 14:40	22.2	22.2	22.2	60	14.1	5	10	45	0.0	1013.0	606	0.000	3.8
20100923 14:45	22.2	22.2	22.2	60	14.1	3	10	45	0.0	1013.0	593	0.000	3.7
20100923 14:50	22.1	22.1	22.1	60	14.0	5	8	22	0.0	1013.0	575	0.000	3.5
20100923 14:55	22.4	22.4	22.4	60	14.3	3	8	22	0.0	1012.9	566	0.000	3.5
20100923 15:00	22.7	22.7	22.7	60	14.5	3	8	315	0.0	1012.9	562	0.356	3.3
20100923 15:05	22.9	22.9	22.9	58	14.2	3	10	315	0.0	1012.9	505	0.000	3.1
20100923 15:10	23.2	23.2	23.2	58	14.4	3	10	292	0.0	1012.8	466	0.000	2.9
20100923 15:15	23.4	23.4	23.4	58	14.6	2	8	270	0.0	1012.7	528	0.000	3.0
20100923 15:20	23.6	23.6	23.6	57	14.6	3	10	270	0.0	1012.7	536	0.000	3.0
20100923 15:25	23.8	23.8	23.8	56	14.5	5	10	292	0.0	1012.5	520	0.000	2.8
20100923 15:30	23.7	23.7	23.7	56	14.4	3	8	292	0.0	1012.5	481	0.000	2.6
20100923 15:35	23.7	23.7	23.7	56	14.4	2	6	292	0.0	1012.5	483	0.000	2.5
20100923 15:40	23.7	23.7	23.7	55	14.1	3	6	292	0.0	1012.4	400	0.000	2.3
20100923 15:45	23.6	23.6	23.6	56	14.3	2	5	292	0.0	1012.4	466	0.000	2.3
20100923 15:50	23.7	23.7	23.7	56	14.4	2	8	292	0.0	1012.3	456	0.000	2.2
20100923 15:55	23.4	23.4	23.4	55	13.9	2	6	315	0.0	1012.4	438	0.000	2.1
20100923 16:00	23.2	23.2	23.2	57	14.2	3	8	22	0.0	1012.3	425	0.305	2.0
20100923 16:05	23.2	23.2	23.2	56	13.9	3	10	0	0.0	1012.3	414	0.000	1.9
20100923 16:10	23.3	23.3	23.3	56	14.1	5	8	338	0.0	1012.3	403	0.000	1.8
20100923 16:15	23.5	23.5	23.5	55	13.9	3	8	315	0.0	1012.3	390	0.000	1.7
20100923 16:20	23.7	23.7	23.7	56	14.4	3	6	315	0.0	1012.1	380	0.000	1.6
20100923 16:25	23.7	23.7	23.7	55	14.1	0	3	315	0.0	1012.1	375	0.000	1.5
20100923 16:30	23.9	23.9	25.3	54	14.0	2	8	315	0.0	1012.0	360	0.000	1.4
20100923 16:35	23.8	23.8	23.8	54	14.0	2	8	0	0.0	1012.0	348	0.000	1.3
20100923 16:40	23.7	23.7	23.7	56	14.4	2	6	0	0.0	1011.9	333	0.000	1.3
20100923 16:45	23.7	23.7	23.7	54	13.9	2	8	338	0.0	1011.9	318	0.000	1.2
20100923 16:50	23.7	23.7	23.7	54	13.9	3	6	338	0.0	1011.9	309	0.000	1.1
20100923 16:55	23.8	23.8	23.8	53	13.6	3	8	338	0.0	1011.9	297	0.000	1.0
20100923 17:00	23.9	23.9	25.3	55	14.3	2	5	338	0.0	1011.9	284	0.229	1.0
20100923 17:05	23.8	23.8	23.8	53	13.7	2	6	338	0.0	1011.8	275	0.000	0.9
20100923 17:10	23.6	23.6	23.6	55	14.0	3	6	0	0.0	1011.7	263	0.000	0.8
20100923 17:15	23.4	23.4	23.4	55	13.8	2	3	0	0.0	1011.9	251	0.000	0.8
20100923 17:20	23.2	23.2	23.2	56	13.9	0	3	0	0.0	1011.8	238	0.000	0.7
20100923 17:25	23.4	23.4	23.4	55	13.8	0	2	0	0.0	1011.8	223	0.000	0.6
20100923 17:30	23.7	23.7	23.7	55	14.1	0	2	0	0.0	1011.6	206	0.000	0.6
20100923 17:35	23.9	23.9	25.3	54	14.1	0	2	0	0.0	1011.6	190	0.000	0.5
20100923 17:40	24.1	24.1	25.4	53	13.9	0	2	0	0.0	1011.6	175	0.000	0.5
20100923 17:45	24.3	24.3	25.5	52	13.8	0	2	0	0.0	1011.6	159	0.000	0.0
20100923 17:50	24.4	24.4	25.6	53	14.2	0	2	0	0.0	1011.6	145	0.000	0.0
20100923 17:55	24.1	24.1	25.4	54	14.2	0	0	-100000	0.0	1011.6	131	0.000	0.0
20100923 18:00	23.8	23.8	23.8	54	13.9	0	2	0	0.0	1011.6	115	0.127	0.0
20100923 18:05	23.6	23.6	23.6	54	13.7	2	5	0	0.0	1011.5	92	0.000	0.0
20100923 18:10	23.4	23.4	23.4	54	13.5	2	5	0	0.0	1011.6	57	0.000	0.0
20100923 18:15	23.0	23.0	23.0	56	13.7	0	3	0	0.0	1011.4	43	0.000	0.0
20100923 18:20	22.7	22.7	22.7	57	13.8	0	0	-100000	0.0	1011.6	46	0.000	0.0
20100923 18:25	22.6	22.6	22.6	58	13.9	0	0	-100000	0.0	1011.6	42	0.000	0.0
20100923 18:30	22.4	22.4	22.4	58	13.7	0	0	-100000	0.0	1011.6	37	0.000	0.0
20100923 18:35	22.0	22.0	22.0	60	13.9	0	2	0	0.0	1011.5	26	0.000	0.0
20100923 18:40	21.7	21.7	21.7	61	13.8	0	0	-100000	0.0	1011.6	19	0.000	0.0
20100923 18:45	21.4	21.4	21.4	62	13.8	0	0	-100000	0.0	1011.6	15	0.000	0.0
20100923 18:50	21.1	21.1	21.1	63	13.7	0	2	0	0.0	1011.6	11	0.000	0.0
20100923 18:55	20.7	20.7	20.7	65	13.9	0	2	0	0.0	1011.6	8	0.000	0.0
20100923 19:00	20.4	20.4	20.4	66	13.9	0	2	0	0.0	1011.7	5	0.025	0.0
20100923 19:05	20.2	20.2	20.2	67	13.8	0	0	-100000	0.0	1011.6	0	0.000	0.0
20100923 19:10	19.9	19.9	19.9	68	13.9	0	0	-100000	0.0	1011.6	0	0.000	0.0
20100923 19:15	19.7	19.7	19.7	69	13.8	0	2	0	0.0	1011.6	0	0.000	0.0
20100923 19:20	19.4	19.4	19.4	70	13.8	0	2	0	0.0	1011.6	0	0.000	0.0
20100923 19:25	19.2	19.2	19.2	71	13.8	0	2	0	0.0	1011.5	0	0.000	0.0
20100923 19:30	19.0	19.0	19.0	71	13.6	0	2	0	0.0	1011.6	0	0.000	0.0
20100923 19:35	18.8	18.8	18.8	72	13.6	0	2	0	0.0	1011.7	0	0.000	0.0
20100923 19:40	18.5	18.5	18.5	74	13.8	0	6	0	0.0	1011.7	0	0.000	0.0
20100923 19:45	18.3	18.3	18.3	74	13.6	0	3	0	0.0	1011.7	0	0.000	0.0
20100923 19:50	18.2	18.2	18.2	75	13.7	0	5	0	0.0	1011.6	0	0.000	0.0
20100923 19:55	18.1	18.1	18.1	75	13.6	2	6	22	0.0	1011.8	0	0.000	0.0
20100923 20:00	17.9	17.9	17.9	76	13.6	0	3	22	0.0	1011.8	0	0.000	0.0
20100923 20:05	17.8	17.8	17.8	77	13.7	0	3	22	0.0	1011.5	0	0.000	0.0
20100923 20:10	17.7	17.7	17.7	78	13.8	0	3	22	0.0	1011.5	0	0.000	0.0
20100923 20:15	17.4	17.4	17.4	79	13.8	0	3	22	0.0	1011.4	0	0.000	0.0
20100923 20:20	17.3	17.3	17.3	79	13.7	0	3	22	0.0	1011.4	0	0.000	0.0
20100923 20:25	17.2	17.2	17.2	81	13.9	2	5	22	0.0	1011.4	0	0.000	0.0
20100923 20:30	17.2	17.2	17.2	81	13.9	0	3	22	0.0	1011.4	0	0.000	0.0
20100923 20:35	17.1	17.1	17.1	81	13.8	0	3	22	0.0	1011.3	0	0.000	0.0
20100923 20:40	16.9	16.9	16.9	81	13.7	0	2	22	0.0	1011.3	0	0.000	0.0
20100923 20:45	16.8	16.8	16.8	82	13.7	0	5	22	0.0	1011.3	0	0.000	0.0
20100923 20:50	16.7	16.7	16.7	82	13.6	0	2	22	0.0	1011.3	0	0.000	0.0
20100923 20:55	16.6	16.6	16.6	83	13.7	0	2	22	0.0	1011.2	0	0.000	0.0
20100923 21:00	16.5	16.5	16.5	83	13.6	0	2	22	0.0	1011.1	0	0.025	0.0
20100923 21:05	16.4	16.4	16.4	83	13.5	0	5	22	0.0	1010.8	0	0.000	0.0
20100923 21:10	16.3	16.3	16.3	84	13.6	0	2	22	0.0	1010.8	0	0.000	0.0
20100923 21:15	16.2	16.2	16.2	84	13.5	0	3	22	0.0	1010.8	0	0.000	0.0
20100923 21:20	16.2	16.2	16.2	84	13.5	2	8	45	0.0	1010.9	0	0.000	0.0
20100923 21:25	16.1	16.1	16.1	84	13.4	2	8	90	0.0	1010.8	0	0.000	0.0
20100923 21:30	16.1	16.1	16.1	85	13.5	2	8	90	0.0	1010.7	0	0.000	0.0
20100923 21:35	16.1	16.1	16.1	85	13.5	2	6	90	0.0	1010.8	0	0.000	0.0
20100923 21:40	16.1	16.1	16.1	85	13.5	3	6	90	0.0	1010.7	0	0.000	0.0
20100923 21:45	16.1	16.1	16.1	85	13.6	3	8	90	0.0	1010.6	0	0.000	0.0
20100923 21:50	16.1	16.1	16.1	85	13.6	5	8	90	0.0	1010.6	0	0.000	0.0
20100923 21:55	16.1	16.1	16.1	85	13.5	3	8	112	0.0	1010.6	0	0.000	0.0
20100923 22:00	16.0	16.0	16.0	85	13.5	2	6	112	0.0	1010.5	0	0.025	0.0
20100923 22:05	15.9	15.9	15.9	85	13.4	0	5	112	0.0	1010.3	0	0.000	0.0
20100923 22:10	15.8	15.8	15.8	85	13.3	2	6	112	0.0	1010.3	0	0.000	0.0
20100923 22:15	15.8	15.8	15.8	85	13.3	2	8	112	0.0	1010.2	0	0.000	0.0
20100923 22:20	15.7	15.7	15.7	86	13.3	2	6	112	0.0	1010.1	0	0.000	0.0
20100923 22:25	15.6	15.6	15.6	86	13.3	2	8	112	0.0	1010.0	0	0.000	0.0
20100923 22:30	15.5	15.5	15.5	86	13.2	2	8	112	0.0	1010.0	0	0.000	0.0
20100923 22:35	15.4	15.4	15.4	86	13.1	3	10	112	0.0	1010.0	0	0.000	0.0
20100923 22:40	15.4	15.4	15.4	87	13.3	5	10	112	0.0	1010.0	0	0.000	0.0
20100923 22:45	15.4	15.4	15.4	87	13.2	3	8	135	0.0	1009.9	0	0.000	0.0
20100923 22:50	15.4	15.4	15.4	87	13.2	3	6	135	0.0	1009.9	0	0.000	0.0
20100923 22:55	15.3	15.3	15.3	87	13.2	3	6	135	0.0	1009.8	0	0.000	0.0
20100923 23:00	15.3	15.3	15.3	87	13.1	3	11	135	0.0	1009.7	0	0.025	0.0
20100923 23:05	15.3	15.3	15.3	87	13.1	3	8	135	0.0	1009.4	0	0.000	0.0
20100923 23:10	15.3	15.3	15.3	87	13.1	3	10	135	0.0	1009.4	0	0.000	0.0
20100923 23:15	15.3	15.3	15.3	87	13.1	3	8	135	0.0	1009.4	0	0.000	0.0
20100923 23:20	15.2	15.2	15.2	87	13.1	2	6	135	0.0	1009.5	0	0.000	0.0
20100923 23:25	15.2	15.2	15.2	87	13.0	2	8	135	0.0	1009.4	0	0.000	0.0
20100923 23:30	15.1	15.1	15.1	87	12.9	3	6	135	0.0	1009.4	0	0.000	0.0
20100923 23:35	15.0	15.0	15.0	87	12.9	3	6	135	0.0	1009.3	0	0.000	0.0
20100923 23:40	15.0	15.0	15.0	87	12.9	2	5	135	0.0	1009.4	0	0.000	0.0
20100923 23:45	14.9	14.9	14.9	87	12.8	0	3	135	0.0	1009.2	0	0.000	0.0
20100923 23:50	14.8	14.8	14.8	88	12.9	0	5	135	0.0	1009.3	0	0.000	0.0
20100923 23:55	14.8	14.8	14.8	88	12.8	2	6	135	0.0	1009.2	0	0.000	0.0



Please note the license to use and transfer of this data:
http://creativecommons.org/licenses/by-nc-sa/3.0/deed.en

Bitte beachten sie die Lizenz zur Verwertung und Weitergabe der Daten:
http://creativecommons.org/licenses/by-nc-sa/3.0/deed.de

zurück zur Übersicht der Archivdaten (Monats und Tagesdaten)

Cookies helfen bei der Bereitstellung von Inhalten. Durch die Nutzung dieser Seiten erklärst du dich damit einverstanden, dass Cookies auf deinem Rechner gespeichert werden. Weitere Information